Wetterdaten: Woche 22.01.07 - 28.01.07 (KW4)
Datum Zeit Temp. a Sch. Temp. a Son. Temp. a Bod. Feuchte a. Luftdruck Regen Wind Richtung Sonnenschein Helligkeit Taupunkt Windchill
22.01.2007 00:00 3,1 C 3,2 C 2,0 C 71 % 1014 hPa 0,0 l/m 3,0 m/s (2 Bft) W-SW 0,00 h 0 lux -1,8 C -0,5 C
22.01.2007 01:00 2,6 C 2,5 C 1,4 C 73 % 1014 hPa 0,0 l/m 2,9 m/s (2 Bft) W 0,00 h 0 lux -1,7 C -0,7 C
22.01.2007 02:00 2,4 C 2,3 C 1,2 C 75 % 1014 hPa 0,0 l/m 2,8 m/s (2 Bft) W 0,00 h 0 lux -1,5 C -0,6 C
22.01.2007 03:00 2,4 C 2,2 C 1,2 C 77 % 1014 hPa 0,0 l/m 2,9 m/s (2 Bft) W-SW 0,00 h 0 lux -1,3 C -1,0 C
22.01.2007 04:00 2,5 C 2,1 C 1,2 C 77 % 1013 hPa 0,0 l/m 3,3 m/s (2 Bft) W 0,00 h 0 lux -1,1 C -2,0 C
22.01.2007 05:00 2,5 C 2,2 C 1,2 C 76 % 1013 hPa 0,0 l/m 4,0 m/s (3 Bft) W 0,00 h 0 lux -1,3 C -3,5 C
22.01.2007 06:00 1,6 C 1,7 C 0,5 C 81 % 1013 hPa 0,0 l/m 1,2 m/s (1 Bft) W-SW 0,00 h 0 lux -1,3 C 0,2 C
22.01.2007 07:00 1,9 C 1,8 C 1,0 C 83 % 1013 hPa 0,0 l/m 2,0 m/s (2 Bft) W-SW 0,00 h 42 lux -0,7 C 0,3 C
22.01.2007 08:00 1,4 C 1,6 C 0,5 C 83 % 1014 hPa 0,0 l/m 0,9 m/s (1 Bft) W-SW 0,00 h 1,09 klux -1,1 C 1,1 C
22.01.2007 09:00 1,5 C 1,5 C 0,7 C 86 % 1014 hPa 0,0 l/m 0,9 m/s (1 Bft) W 0,00 h 8,36 klux -0,6 C 1,3 C
22.01.2007 10:00 2,8 C 2,8 C 2,0 C 81 % 1014 hPa 0,0 l/m 0,2 m/s (0 Bft) SW 0,25 h 17,0 klux -0,1 C 2,8 C
22.01.2007 11:00 4,4 C 4,7 C 3,7 C 69 % 1014 hPa 0,0 l/m 0,6 m/s (1 Bft) SW 0,00 h 16,7 klux -0,8 C 4,4 C
22.01.2007 12:00 4,8 C 5,5 C 4,4 C 65 % 1014 hPa 0,0 l/m 1,7 m/s (2 Bft) S 0,00 h 9,1 klux -1,2 C 4,1 C
22.01.2007 13:00 4,6 C 5,1 C 4,2 C 68 % 1014 hPa 0,0 l/m 0,7 m/s (1 Bft) S-SO 0,00 h 8,32 klux -0,8 C 4,6 C
22.01.2007 14:00 5,0 C 5,6 C 4,5 C 64 % 1014 hPa 0,0 l/m 1,9 m/s (2 Bft) W 0,00 h 5,71 klux -1,3 C 3,5 C
22.01.2007 15:00 4,5 C 5,1 C 4,1 C 64 % 1014 hPa 0,0 l/m 2,2 m/s (2 Bft) NW 0,00 h 4,82 klux -1,8 C 2,6 C
22.01.2007 16:00 3,6 C 4,4 C 3,2 C 73 % 1015 hPa 0,0 l/m 1,4 m/s (1 Bft) W-SW 0,00 h 1,89 klux -0,7 C 3,2 C
22.01.2007 17:00 2,7 C 3,4 C 2,2 C 80 % 1015 hPa 0,4 l/m 1,0 m/s (1 Bft) N-NW 0,00 h 82 lux -0,4 C 1,7 C
22.01.2007 18:00 2,4 C 3,1 C 2,0 C 84 % 1016 hPa 0,0 l/m 0,7 m/s (1 Bft) NO 0,00 h 0 lux 0,1 C 2,0 C
22.01.2007 19:00 1,2 C 2,3 C 0,8 C 69 % 1017 hPa 0,0 l/m 4,4 m/s (3 Bft) O 0,00 h 0 lux -4,0 C -5,3 C
22.01.2007 20:00 -0,9 C 0,4 C -0,9 C 50 % 1018 hPa 0,0 l/m 3,9 m/s (3 Bft) O 0,00 h 0 lux -10,1 C -7,0 C
22.01.2007 21:00 -1,8 C -1,1 C -2,0 C 38 % 1018 hPa 0,0 l/m 4,7 m/s (3 Bft) O 0,00 h 0 lux -14,2 C -9,8 C
22.01.2007 22:00 -2,6 C -2,0 C -2,5 C 32 % 1018 hPa 0,0 l/m 3,0 m/s (2 Bft) O 0,00 h 0 lux -17,0 C -7,1 C
22.01.2007 23:00 -3,2 C -2,8 C -2,7 C 32 % 1018 hPa 0,0 l/m 2,7 m/s (2 Bft) O 0,00 h 0 lux -17,7 C -6,9 C
23.01.2007 00:00 -3,6 C -3,2 C -3,0 C 36 % 1018 hPa 0,0 l/m 4,3 m/s (3 Bft) O-NO 0,00 h 0 lux -16,4 C -11,4 C
23.01.2007 01:00 -4,1 C -3,7 C -3,4 C 41 % 1018 hPa 0,0 l/m 3,9 m/s (3 Bft) O 0,00 h 0 lux -15,5 C -11,1 C
23.01.2007 02:00 -4,7 C -4,4 C -4,0 C 44 % 1018 hPa 0,0 l/m 3,7 m/s (3 Bft) O-NO 0,00 h 0 lux -15,0 C -11,4 C
23.01.2007 03:00 -5,0 C -4,7 C -4,5 C 48 % 1018 hPa 0,0 l/m 4,3 m/s (3 Bft) O 0,00 h 0 lux -14,4 C -13,1 C
23.01.2007 04:00 -5,5 C -5,2 C -5,3 C 52 % 1017 hPa 0,0 l/m 3,9 m/s (3 Bft) O-NO 0,00 h 0 lux -13,8 C -12,9 C
23.01.2007 05:00 -5,8 C -5,6 C -5,7 C 53 % 1017 hPa 0,0 l/m 4,3 m/s (3 Bft) O-NO 0,00 h 0 lux -13,9 C -14,3 C
23.01.2007 06:00 -6,1 C -5,8 C -5,9 C 55 % 1016 hPa 0,0 l/m 4,4 m/s (3 Bft) O-NO 0,00 h 0 lux -13,7 C -14,6 C
23.01.2007 07:00 -6,2 C -6,2 C -6,1 C 57 % 1016 hPa 0,0 l/m 3,7 m/s (3 Bft) NO 0,00 h 0 lux -13,3 C -13,0 C
23.01.2007 08:00 -6,1 C -6,1 C -6,0 C 58 % 1015 hPa 0,0 l/m 4,2 m/s (3 Bft) O 0,00 h 1,38 klux -13,1 C -14,2 C
23.01.2007 09:00 -5,2 C -5,0 C -5,1 C 55 % 1015 hPa 0,0 l/m 5,5 m/s (4 Bft) O 0,42 h 10,0 klux -12,8 C -16,1 C
23.01.2007 10:00 -4,2 C -3,7 C -3,9 C 52 % 1014 hPa 0,0 l/m 6,4 m/s (4 Bft) O 0,17 h 14,7 klux -12,7 C -16,4 C
23.01.2007 11:00 -2,8 C -2,0 C -2,0 C 47 % 1013 hPa 0,0 l/m 6,8 m/s (4 Bft) O 1,00 h 38,0 klux -12,4 C -15,0 C
23.01.2007 12:00 -2,4 C -1,0 C -1,4 C 45 % 1012 hPa 0,0 l/m 5,0 m/s (3 Bft) NO 0,33 h 22,9 klux -12,8 C -11,1 C
23.01.2007 13:00 -1,6 C 0,1 C -1,1 C 42 % 1011 hPa 0,0 l/m 4,3 m/s (3 Bft) O-NO 0,58 h 29,7 klux -12,8 C -8,7 C
23.01.2007 14:00 -1,3 C 0,3 C -1,3 C 42 % 1010 hPa 0,0 l/m 5,6 m/s (4 Bft) NO 1,00 h 33,0 klux -12,6 C -11,1 C
23.01.2007 15:00 -2,0 C -0,8 C -2,1 C 46 % 1009 hPa 0,0 l/m 5,4 m/s (3 Bft) NO 0,50 h 15,8 klux -12,1 C -11,7 C
23.01.2007 16:00 -2,7 C -1,7 C -2,6 C 45 % 1009 hPa 0,0 l/m 5,4 m/s (3 Bft) NO 0,00 h 1,16 klux -12,8 C -12,5 C
23.01.2007 17:00 -3,1 C -2,4 C -3,1 C 46 % 1008 hPa 0,0 l/m 5,3 m/s (3 Bft) NO 0,00 h 52 lux -13,1 C -12,5 C
23.01.2007 18:00 -3,4 C -2,8 C -3,4 C 45 % 1007 hPa 0,0 l/m 5,1 m/s (3 Bft) O-NO 0,00 h 0 lux -13,5 C -13,0 C
23.01.2007 19:00 -3,6 C -3,1 C -3,8 C 46 % 1006 hPa 0,0 l/m 4,2 m/s (3 Bft) NO 0,00 h 0 lux -13,5 C -11,3 C
23.01.2007 20:00 -3,9 C -3,5 C -4,0 C 45 % 1006 hPa 0,0 l/m 4,1 m/s (3 Bft) O-NO 0,00 h 0 lux -14,0 C -11,4 C
23.01.2007 21:00 -4,0 C -3,4 C -3,9 C 44 % 1005 hPa 0,0 l/m 4,0 m/s (3 Bft) O-NO 0,00 h 0 lux -14,5 C -10,9 C
23.01.2007 22:00 -4,3 C -3,8 C -4,3 C 42 % 1005 hPa 0,0 l/m 3,9 m/s (3 Bft) O-NO 0,00 h 0 lux -15,3 C -11,1 C
23.01.2007 23:00 -4,6 C -4,2 C -4,6 C 42 % 1005 hPa 0,0 l/m 4,0 m/s (3 Bft) O-NO 0,00 h 0 lux -15,7 C -11,9 C
24.01.2007 00:00 -4,9 C -4,3 C -4,6 C 45 % 1004 hPa 0,0 l/m 3,4 m/s (2 Bft) O 0,00 h 0 lux -14,9 C -10,6 C
24.01.2007 01:00 -5,0 C -4,5 C -4,8 C 41 % 1003 hPa 0,0 l/m 2,7 m/s (2 Bft) O-SO 0,00 h 0 lux -16,1 C -9,1 C
24.01.2007 02:00 -5,7 C -5,0 C -5,5 C 41 % 1003 hPa 0,0 l/m 1,7 m/s (2 Bft) NW 0,00 h 0 lux -16,8 C -7,1 C
24.01.2007 03:00 -5,9 C -5,4 C -5,8 C 39 % 1003 hPa 0,0 l/m 2,0 m/s (2 Bft) W-NW 0,00 h 0 lux -17,6 C -8,6 C
24.01.2007 04:00 -5,7 C -5,4 C -5,8 C 31 % 1002 hPa 0,0 l/m 1,3 m/s (1 Bft) W 0,00 h 0 lux -20,3 C -6,4 C
24.01.2007 05:00 -6,0 C -5,3 C -5,9 C 28 % 1002 hPa 0,0 l/m 0,8 m/s (1 Bft) SW 0,00 h 0 lux -21,5 C -6,2 C
24.01.2007 06:00 -4,9 C -5,1 C -5,5 C 22 % 1002 hPa 0,0 l/m 1,3 m/s (1 Bft) NO 0,00 h 0 lux -23,2 C -6,0 C
24.01.2007 07:00 -5,5 C -5,0 C -5,9 C 22 % 1003 hPa 0,0 l/m 0,8 m/s (1 Bft) W 0,00 h 0 lux -23,7 C -5,9 C
24.01.2007 08:00 -6,7 C -5,7 C -6,6 C 25 % 1003 hPa 0,0 l/m 0,7 m/s (1 Bft) S-SW 0,00 h 641 lux -23,5 C -6,9 C
24.01.2007 09:00 -6,0 C -5,5 C -5,7 C 31 % 1003 hPa 0,0 l/m 0,5 m/s (1 Bft) W-SW 0,00 h 5,67 klux -20,2 C -6,0 C
24.01.2007 10:00 -4,6 C -4,1 C -4,3 C 32 % 1004 hPa 0,0 l/m 0,0 m/s (0 Bft) N 0,00 h 13,1 klux -18,9 C -4,6 C
24.01.2007 11:00 -3,0 C -2,2 C -2,8 C 22 % 1004 hPa 0,0 l/m 1,3 m/s (1 Bft) SO 0,00 h 18,5 klux -21,6 C -3,4 C
24.01.2007 12:00 -2,1 C -0,7 C -1,6 C 21 % 1005 hPa 0,0 l/m 1,3 m/s (1 Bft) SO 0,00 h 22,7 klux -21,7 C -3,1 C
24.01.2007 13:00 -1,2 C 0,5 C -1,3 C 25 % 1005 hPa 0,0 l/m 2,9 m/s (2 Bft) O 0,00 h 21,0 klux -18,5 C -5,1 C
24.01.2007 14:00 -0,8 C 1,0 C -1,1 C 32 % 1005 hPa 0,0 l/m 2,6 m/s (2 Bft) O 0,00 h 18,3 klux -15,6 C -4,1 C
24.01.2007 15:00 -1,1 C 0,6 C -1,5 C 31 % 1006 hPa 0,0 l/m 2,6 m/s (2 Bft) NO 0,33 h 12,3 klux -16,0 C -4,0 C
24.01.2007 16:00 -2,2 C -1,0 C -2,6 C 30 % 1007 hPa 0,0 l/m 2,6 m/s (2 Bft) NO 0,43 h 5,58 klux -17,4 C -5,3 C
24.01.2007 17:00 -3,3 C -2,6 C -3,7 C 29 % 1008 hPa 0,0 l/m 2,0 m/s (2 Bft) N 0,00 h 136 lux -18,7 C -5,9 C
24.01.2007 18:00 -5,0 C -4,1 C -5,1 C 36 % 1008 hPa 0,0 l/m 0,0 m/s (0 Bft) N 0,00 h 0 lux -17,7 C -5,0 C
24.01.2007 19:00 -6,3 C -5,2 C -6,3 C 45 % 1010 hPa 0,0 l/m 0,1 m/s (0 Bft) N 0,00 h 0 lux -16,3 C -6,3 C
24.01.2007 20:00 -5,9 C -5,8 C -6,2 C 45 % 1010 hPa 0,0 l/m 1,3 m/s (1 Bft) N 0,00 h 0 lux -15,9 C -6,3 C
24.01.2007 21:00 -5,8 C -5,9 C -6,2 C 54 % 1011 hPa 0,0 l/m 1,1 m/s (1 Bft) N 0,00 h 0 lux -13,6 C -6,1 C
24.01.2007 22:00 -5,6 C -5,8 C -6,1 C 61 % 1012 hPa 0,0 l/m 1,7 m/s (2 Bft) O-NO 0,00 h 0 lux -12,0 C -8,0 C
24.01.2007 23:00 -5,9 C -5,9 C -6,3 C 63 % 1012 hPa 0,0 l/m 0,6 m/s (1 Bft) NO 0,00 h 0 lux -11,8 C -6,3 C
25.01.2007 00:00 -6,0 C -6,1 C -6,4 C 65 % 1013 hPa 0,0 l/m 0,5 m/s (1 Bft) NW 0,00 h 0 lux -11,6 C -6,1 C
25.01.2007 01:00 -6,0 C -6,3 C -6,6 C 69 % 1013 hPa 0,0 l/m 0,7 m/s (1 Bft) N-NO 0,00 h 0 lux -10,8 C -6,7 C
25.01.2007 02:00 -6,4 C -6,3 C -6,7 C 71 % 1014 hPa 0,0 l/m 0,7 m/s (1 Bft) N-NW 0,00 h 0 lux -10,7 C -6,5 C
25.01.2007 03:00 -5,2 C -6,2 C -6,1 C 74 % 1015 hPa 0,0 l/m 2,0 m/s (2 Bft) NO 0,00 h 0 lux -9,1 C -7,5 C
25.01.2007 04:00 -4,2 C -5,1 C -5,1 C 70 % 1015 hPa 0,0 l/m 2,2 m/s (2 Bft) NO 0,00 h 0 lux -8,8 C -7,2 C
25.01.2007 05:00 -3,9 C -4,5 C -5,0 C 70 % 1016 hPa 0,0 l/m 2,9 m/s (2 Bft) NO 0,00 h 0 lux -8,6 C -8,3 C
25.01.2007 06:00 -3,6 C -4,3 C -4,9 C 69 % 1016 hPa 0,0 l/m 2,7 m/s (2 Bft) O-NO 0,00 h 0 lux -8,4 C -6,9 C
25.01.2007 07:00 -3,6 C -4,1 C -4,7 C 70 % 1017 hPa 0,0 l/m 1,8 m/s (2 Bft) NO 0,00 h 0 lux -8,2 C -5,0 C
25.01.2007 08:00 -2,7 C -3,3 C -3,9 C 66 % 1018 hPa 0,0 l/m 2,5 m/s (2 Bft) N-NO 0,00 h 788 lux -8,3 C -5,6 C
25.01.2007 09:00 -2,1 C -2,6 C -3,0 C 63 % 1019 hPa 0,0 l/m 3,0 m/s (2 Bft) O-NO 0,00 h 4,61 klux -8,2 C -6,1 C
25.01.2007 10:00 -1,6 C -1,4 C -2,2 C 57 % 1020 hPa 0,0 l/m 4,2 m/s (3 Bft) NO 0,00 h 5,69 klux -9,0 C -8,6 C
25.01.2007 11:00 -1,4 C -0,9 C -1,7 C 53 % 1020 hPa 0,0 l/m 4,1 m/s (3 Bft) O-NO 0,00 h 9,7 klux -9,7 C -8,1 C
25.01.2007 12:00 -1,1 C -0,0 C -1,2 C 47 % 1020 hPa 0,0 l/m 3,7 m/s (3 Bft) NO 0,08 h 15,1 klux -10,9 C -6,8 C
25.01.2007 13:00 -0,9 C -0,1 C -1,1 C 44 % 1021 hPa 0,0 l/m 4,0 m/s (3 Bft) NO 0,00 h 9,4 klux -11,5 C -7,5 C
25.01.2007 14:00 -1,1 C 0,5 C -1,1 C 43 % 1020 hPa 0,0 l/m 3,8 m/s (3 Bft) O-NO 0,42 h 21,8 klux -11,9 C -7,3 C
25.01.2007 15:00 -2,0 C -0,2 C -2,2 C 43 % 1020 hPa 0,0 l/m 2,5 m/s (2 Bft) O 0,50 h 13,6 klux -12,8 C -4,9 C
25.01.2007 16:00 -2,7 C -2,0 C -3,3 C 42 % 1021 hPa 0,0 l/m 0,5 m/s (1 Bft) N-NO 0,83 h 8,32 klux -13,8 C -2,8 C
25.01.2007 17:00 -4,9 C -3,8 C -5,2 C 48 % 1021 hPa 0,0 l/m 0,0 m/s (0 Bft) N 0,00 h 144 lux -14,3 C -4,9 C
25.01.2007 18:00 -6,6 C -5,3 C -6,3 C 56 % 1022 hPa 0,0 l/m 0,0 m/s (0 Bft) N 0,00 h 0 lux -14,0 C -6,6 C
25.01.2007 19:00 -6,8 C -6,0 C -6,5 C 60 % 1022 hPa 0,0 l/m 0,0 m/s (0 Bft) N 0,00 h 0 lux -13,3 C -6,8 C
25.01.2007 20:00 -6,9 C -6,5 C -6,9 C 61 % 1022 hPa 0,0 l/m 0,0 m/s (0 Bft) N 0,00 h 0 lux -13,2 C -6,9 C
25.01.2007 21:00 -7,8 C -7,3 C -7,6 C 61 % 1023 hPa 0,0 l/m 0,0 m/s (0 Bft) N 0,00 h 0 lux -14,0 C -7,8 C
25.01.2007 22:00 -8,6 C -7,8 C -8,3 C 68 % 1023 hPa 0,0 l/m 0,9 m/s (1 Bft) W 0,00 h 0 lux -13,4 C -8,6 C
25.01.2007 23:00 -9,4 C -8,5 C -8,9 C 70 % 1023 hPa 0,0 l/m 0,2 m/s (0 Bft) W 0,00 h 0 lux -13,9 C -9,4 C
26.01.2007 00:00 -10,6 C -9,4 C -9,8 C 71 % 1023 hPa 0,0 l/m 0,0 m/s (0 Bft) N 0,00 h 0 lux -14,8 C -10,6 C
26.01.2007 01:00 -11,2 C -10,0 C -10,1 C 72 % 1022 hPa 0,0 l/m 0,0 m/s (0 Bft) N 0,00 h 0 lux -15,1 C -11,2 C
26.01.2007 02:00 -11,4 C -10,5 C -10,6 C 72 % 1022 hPa 0,0 l/m 0,0 m/s (0 Bft) N 0,00 h 0 lux -15,4 C -11,4 C
26.01.2007 03:00 -11,6 C -10,8 C -10,7 C 73 % 1022 hPa 0,0 l/m 0,0 m/s (0 Bft) N 0,00 h 0 lux -15,5 C -11,6 C
26.01.2007 04:00 -11,1 C -10,6 C -10,0 C 73 % 1021 hPa 0,0 l/m 0,0 m/s (0 Bft) W-SW 0,00 h 0 lux -15,0 C -11,1 C
26.01.2007 05:00 -10,7 C -10,1 C -9,7 C 72 % 1021 hPa 0,0 l/m 0,2 m/s (0 Bft) W 0,00 h 0 lux -14,7 C -10,7 C
26.01.2007 06:00 -10,2 C -9,7 C -9,4 C 72 % 1021 hPa 0,0 l/m 0,0 m/s (0 Bft) SO 0,00 h 0 lux -14,3 C -10,2 C
26.01.2007 07:00 -9,8 C -9,3 C -9,2 C 72 % 1021 hPa 0,0 l/m 0,0 m/s (0 Bft) N 0,00 h 55 lux -13,9 C -9,8 C
26.01.2007 08:00 -9,2 C -8,9 C -8,5 C 73 % 1021 hPa 0,0 l/m 0,0 m/s (0 Bft) N 0,00 h 587 lux -13,1 C -9,2 C
26.01.2007 09:00 -7,9 C -7,7 C -7,3 C 72 % 1021 hPa 0,0 l/m 0,0 m/s (0 Bft) N 0,00 h 2,92 klux -12,1 C -7,9 C
26.01.2007 10:00 -6,3 C -6,4 C -6,1 C 70 % 1021 hPa 0,0 l/m 0,0 m/s (0 Bft) N 0,00 h 5,77 klux -10,9 C -6,3 C
26.01.2007 11:00 -4,9 C -4,8 C -4,7 C 65 % 1021 hPa 0,0 l/m 0,1 m/s (0 Bft) SW 0,00 h 7,28 klux -10,4 C -4,9 C
26.01.2007 12:00 -3,8 C -3,7 C -3,6 C 58 % 1020 hPa 0,0 l/m 2,6 m/s (2 Bft) SW 0,00 h 9,2 klux -10,8 C -7,1 C
26.01.2007 13:00 -3,4 C -3,1 C -3,1 C 55 % 1019 hPa 0,0 l/m 3,5 m/s (3 Bft) SW 0,00 h 8,99 klux -11,2 C -9,1 C
26.01.2007 14:00 -2,9 C -2,9 C -2,8 C 55 % 1019 hPa 0,0 l/m 2,5 m/s (2 Bft) SW 0,00 h 7,85 klux -10,7 C -5,9 C
26.01.2007 15:00 -2,7 C -2,5 C -2,7 C 55 % 1018 hPa 0,0 l/m 3,3 m/s (2 Bft) SW 0,00 h 4,35 klux -10,5 C -7,9 C
26.01.2007 16:00 -2,7 C -2,2 C -2,9 C 57 % 1018 hPa 0,0 l/m 5,3 m/s (3 Bft) W-SW 0,00 h 1,37 klux -10,0 C -12,5 C
26.01.2007 17:00 -2,7 C -2,4 C -3,2 C 64 % 1017 hPa 0,0 l/m 3,1 m/s (2 Bft) W-SW 0,00 h 68 lux -8,6 C -7,3 C
26.01.2007 18:00 -2,3 C -2,0 C -3,0 C 64 % 1017 hPa 0,0 l/m 5,0 m/s (3 Bft) W-SW 0,00 h 0 lux -8,1 C -11,1 C
26.01.2007 19:00 -2,1 C -1,9 C -3,0 C 70 % 1016 hPa 0,0 l/m 4,9 m/s (3 Bft) W-SW 0,00 h 0 lux -6,9 C -11,0 C
26.01.2007 20:00 -2,0 C -1,9 C -2,9 C 79 % 1016 hPa 0,0 l/m 4,0 m/s (3 Bft) W-SW 0,00 h 0 lux -5,1 C -9,0 C
26.01.2007 21:00 -1,6 C -1,7 C -2,6 C 80 % 1016 hPa 0,0 l/m 2,3 m/s (2 Bft) W-SW 0,00 h 0 lux -4,6 C -3,6 C
26.01.2007 22:00 -1,2 C -1,2 C -2,3 C 79 % 1016 hPa 0,0 l/m 3,7 m/s (3 Bft) W-SW 0,00 h 0 lux -4,3 C -7,2 C
26.01.2007 23:00 -0,9 C -1,1 C -2,1 C 85 % 1016 hPa 0,0 l/m 2,9 m/s (2 Bft) W-SW 0,00 h 0 lux -3,1 C -4,8 C
27.01.2007 00:00 0,5 C -0,3 C -1,4 C 85 % 1016 hPa 0,0 l/m 3,7 m/s (3 Bft) W 0,00 h 0 lux -1,7 C -5,3 C
27.01.2007 01:00 1,1 C 0,5 C -0,9 C 87 % 1016 hPa 0,0 l/m 4,3 m/s (3 Bft) W-SW 0,00 h 0 lux -0,8 C -5,8 C
27.01.2007 02:00 1,3 C 0,8 C -0,9 C 87 % 1016 hPa 0,0 l/m 4,4 m/s (3 Bft) W-SW 0,00 h 0 lux -0,5 C -5,7 C
27.01.2007 03:00 1,4 C 1,0 C -0,8 C 83 % 1017 hPa 0,0 l/m 4,8 m/s (3 Bft) W-SW 0,00 h 0 lux -1,2 C -6,3 C
27.01.2007 04:00 1,3 C 1,0 C -0,8 C 85 % 1017 hPa 0,0 l/m 3,5 m/s (3 Bft) W-SW 0,00 h 0 lux -1,0 C -3,8 C
27.01.2007 05:00 1,3 C 1,0 C -0,7 C 83 % 1018 hPa 0,0 l/m 4,2 m/s (3 Bft) W-SW 0,00 h 0 lux -1,3 C -5,2 C
27.01.2007 06:00 1,2 C 1,2 C -0,7 C 74 % 1018 hPa 0,4 l/m 4,7 m/s (3 Bft) W 0,00 h 0 lux -2,8 C -6,5 C
27.01.2007 07:00 1,0 C 1,1 C -0,7 C 72 % 1019 hPa 0,0 l/m 4,4 m/s (3 Bft) W 0,00 h 66 lux -3,5 C -5,8 C
27.01.2007 08:00 1,0 C 1,0 C -0,8 C 71 % 1020 hPa 0,0 l/m 4,8 m/s (3 Bft) W 0,00 h 1,01 klux -3,6 C -6,8 C
27.01.2007 09:00 1,3 C 1,3 C -0,7 C 73 % 1021 hPa 0,0 l/m 4,3 m/s (3 Bft) W-SW 0,00 h 2,73 klux -3,1 C -5,6 C
27.01.2007 10:00 1,3 C 1,6 C -0,6 C 76 % 1022 hPa 0,0 l/m 4,6 m/s (3 Bft) W-SW 0,00 h 6,94 klux -2,5 C -6,1 C
27.01.2007 11:00 1,4 C 1,6 C -0,6 C 82 % 1023 hPa 0,0 l/m 3,6 m/s (3 Bft) W-SW 0,00 h 7,46 klux -1,3 C -3,8 C
27.01.2007 12:00 1,6 C 1,7 C -0,6 C 79 % 1023 hPa 0,7 l/m 4,3 m/s (3 Bft) W-SW 0,00 h 5,92 klux -1,6 C -5,1 C
27.01.2007 13:00 2,1 C 2,3 C -0,5 C 70 % 1023 hPa 0,4 l/m 4,5 m/s (3 Bft) W 0,00 h 8,44 klux -2,8 C -4,9 C
27.01.2007 14:00 2,0 C 2,4 C -0,5 C 67 % 1024 hPa 0,0 l/m 3,7 m/s (3 Bft) W 0,00 h 2,90 klux -3,4 C -3,4 C
27.01.2007 15:00 1,9 C 2,2 C -0,3 C 70 % 1024 hPa 0,0 l/m 3,5 m/s (3 Bft) W-SW 0,00 h 2,94 klux -2,9 C -3,0 C
27.01.2007 16:00 1,8 C 2,0 C -0,2 C 74 % 1025 hPa 0,0 l/m 3,0 m/s (2 Bft) W-SW 0,00 h 1,33 klux -2,3 C -2,1 C
27.01.2007 17:00 1,6 C 1,8 C -0,3 C 78 % 1025 hPa 0,0 l/m 2,8 m/s (2 Bft) W-SW 0,00 h 27 lux -1,9 C -1,6 C
27.01.2007 18:00 1,9 C 1,7 C -0,2 C 79 % 1026 hPa 0,0 l/m 2,6 m/s (2 Bft) W-SW 0,00 h 0 lux -1,4 C -1,3 C
27.01.2007 19:00 2,1 C 2,0 C 0,1 C 76 % 1026 hPa 0,0 l/m 4,0 m/s (3 Bft) W-SW 0,00 h 0 lux -1,7 C -4,0 C
27.01.2007 20:00 2,2 C 2,1 C 0,2 C 78 % 1027 hPa 0,4 l/m 4,0 m/s (3 Bft) W-SW 0,00 h 0 lux -1,3 C -3,8 C
27.01.2007 21:00 2,2 C 2,2 C 0,2 C 77 % 1027 hPa 0,0 l/m 2,8 m/s (2 Bft) W-SW 0,00 h 0 lux -1,5 C -0,6 C
27.01.2007 22:00 2,2 C 2,2 C 0,2 C 76 % 1028 hPa 0,4 l/m 2,7 m/s (2 Bft) W-SW 0,00 h 0 lux -1,6 C -0,5 C
27.01.2007 23:00 2,4 C 2,4 C 0,5 C 76 % 1028 hPa 0,0 l/m 4,2 m/s (3 Bft) W-SW 0,00 h 0 lux -1,3 C -4,0 C
28.01.2007 00:00 2,5 C 2,5 C 0,5 C 77 % 1028 hPa 0,4 l/m 3,9 m/s (3 Bft) W-SW 0,00 h 0 lux -1,0 C -3,0 C
28.01.2007 01:00 2,5 C 2,4 C 0,5 C 81 % 1028 hPa 0,0 l/m 3,8 m/s (3 Bft) W-SW 0,00 h 0 lux -0,4 C -3,0 C
28.01.2007 02:00 2,6 C 2,5 C 0,6 C 83 % 1028 hPa 0,4 l/m 2,8 m/s (2 Bft) W-SW 0,00 h 0 lux -0,0 C -0,5 C
28.01.2007 03:00 2,6 C 2,5 C 0,6 C 85 % 1027 hPa 0,0 l/m 2,1 m/s (2 Bft) W-SW 0,00 h 0 lux 0,4 C 1,1 C
28.01.2007 04:00 3,0 C 2,6 C 1,0 C 87 % 1027 hPa 0,4 l/m 3,4 m/s (2 Bft) W-SW 0,00 h 0 lux 1,0 C -1,6 C
28.01.2007 05:00 3,2 C 3,0 C 1,2 C 84 % 1026 hPa 0,0 l/m 4,3 m/s (3 Bft) W-SW 0,00 h 0 lux 0,8 C -3,1 C
28.01.2007 06:00 3,3 C 3,2 C 1,3 C 79 % 1025 hPa 0,4 l/m 5,0 m/s (3 Bft) W-SW 0,00 h 0 lux 0,1 C -4,3 C
28.01.2007 07:00 3,3 C 3,3 C 1,3 C 78 % 1025 hPa 0,0 l/m 4,4 m/s (3 Bft) W-SW 0,00 h 0 lux -0,1 C -3,4 C
28.01.2007 08:00 3,3 C 3,2 C 1,4 C 81 % 1024 hPa 0,0 l/m 4,6 m/s (3 Bft) W-SW 0,00 h 116 lux 0,4 C -3,8 C
28.01.2007 09:00 3,6 C 3,4 C 1,6 C 78 % 1024 hPa 0,0 l/m 5,3 m/s (3 Bft) W 0,00 h 985 lux 0,1 C -4,4 C
28.01.2007 10:00 3,5 C 3,5 C 1,7 C 82 % 1023 hPa 0,4 l/m 6,3 m/s (4 Bft) W-SW 0,00 h 2,51 klux 0,8 C -6,0 C
28.01.2007 11:00 3,4 C 3,4 C 1,8 C 81 % 1023 hPa 0,0 l/m 8,1 m/s (5 Bft) W 0,00 h 6,60 klux 0,5 C -8,1 C
28.01.2007 12:00 3,5 C 3,7 C 1,9 C 76 % 1021 hPa 0,0 l/m 8,2 m/s (5 Bft) W-SW 0,00 h 6,95 klux -0,4 C -8,2 C
28.01.2007 13:00 3,5 C 3,7 C 1,7 C 70 % 1020 hPa 0,0 l/m 9,5 m/s (5 Bft) W-SW 0,00 h 3,17 klux -1,5 C -9,5 C
28.01.2007 14:00 3,4 C 3,7 C 1,7 C 67 % 1019 hPa 0,0 l/m 9,0 m/s (5 Bft) W-SW 0,00 h 2,67 klux -2,1 C -9,1 C
28.01.2007 15:00 3,2 C 3,3 C 1,6 C 70 % 1019 hPa 0,0 l/m 9,2 m/s (5 Bft) W-SW 0,00 h 2,32 klux -1,7 C -9,7 C
28.01.2007 16:00 3,0 C 3,2 C 1,4 C 75 % 1018 hPa 0,0 l/m 7,7 m/s (4 Bft) W-SW 0,00 h 311 lux -1,0 C -8,4 C
28.01.2007 17:00 2,9 C 2,8 C 1,2 C 83 % 1018 hPa 0,0 l/m 7,1 m/s (4 Bft) W-SW 0,00 h 52 lux 0,2 C -7,9 C
28.01.2007 18:00 3,3 C 2,9 C 1,5 C 83 % 1018 hPa 0,0 l/m 7,1 m/s (4 Bft) W-SW 0,00 h 0 lux 0,7 C -7,2 C
28.01.2007 19:00 3,7 C 3,3 C 1,8 C 84 % 1018 hPa 0,4 l/m 6,8 m/s (4 Bft) W-SW 0,00 h 0 lux 1,2 C -6,4 C
28.01.2007 20:00 4,1 C 3,7 C 2,1 C 82 % 1018 hPa 0,0 l/m 7,8 m/s (4 Bft) W-SW 0,00 h 0 lux 1,3 C -6,8 C
28.01.2007 21:00 4,4 C 3,9 C 2,5 C 85 % 1018 hPa 0,4 l/m 7,7 m/s (4 Bft) W-SW 0,00 h 0 lux 2,1 C -6,4 C
28.01.2007 22:00 5,0 C 4,4 C 3,0 C 84 % 1018 hPa 0,0 l/m 9,7 m/s (5 Bft) W-SW 0,00 h 0 lux 2,5 C -7,4 C
28.01.2007 23:00 5,2 C 4,9 C 3,2 C 81 % 1018 hPa 0,0 l/m 7,4 m/s (4 Bft) W-SW 0,00 h 0 lux 2,3 C -4,9 C
Min-Datum _ 26.01.07 26.01.07 26.01.07 24.01.07 24.01.07 - 22.01.07 - - - 24.01.07 23.01.07
_ Min-Zeit 03:32 03:37 02:52 11:32 03:32 - 06:27 - - - 08:02 17:12
Minimum _ -11,9 C -10,9 C -11,0 C 20 % 1002 hPa - 0,0 m/s (0 Bft) - - - -25,4 C -19,7 C
Max-Datum _ 22.01.07 22.01.07 22.01.07 27.01.07 27.01.07 27.01.07 28.01.07 - 23.01.07 23.01.07 28.01.07 22.01.07
_ Max-Zeit 13:57 14:02 13:47 02:02 22:42 12:12 11:42 - 14:17 11:37 22:17 13:57
Maximum _ 5,4 C 5,8 C 4,8 C 89 % 1028 hPa 0,7 l/m 13,3 m/s
W (6 Bft)
- 0,10 h 42,0 klux 2,8 C 5,4 C
Durchschnitt _ -1,7 C -1,4 C -2,4 C 62 % 1017 hPa #5,0 l/m 3,2 m/s (2 Bft) W-SW #6:51 h 3,34 klux -8,4 C -6,3 C